sensor_id;sensor_type;location;lat;lon;timestamp;temperature;humidity
68235;DHT22;55052;52.056;5.296;2022-12-04T00:00:00;2.40;80.50
68235;DHT22;55052;52.056;5.296;2022-12-04T00:02:30;2.30;80.40
68235;DHT22;55052;52.056;5.296;2022-12-04T00:04:56;2.30;80.40
68235;DHT22;55052;52.056;5.296;2022-12-04T00:07:23;2.30;80.50
68235;DHT22;55052;52.056;5.296;2022-12-04T00:09:50;2.40;80.50
68235;DHT22;55052;52.056;5.296;2022-12-04T00:12:17;2.30;80.30
68235;DHT22;55052;52.056;5.296;2022-12-04T00:14:44;2.30;80.40
68235;DHT22;55052;52.056;5.296;2022-12-04T00:17:30;2.30;80.40
68235;DHT22;55052;52.056;5.296;2022-12-04T00:19:57;2.30;80.40
68235;DHT22;55052;52.056;5.296;2022-12-04T00:22:24;2.30;80.40
68235;DHT22;55052;52.056;5.296;2022-12-04T00:24:51;2.30;80.40
68235;DHT22;55052;52.056;5.296;2022-12-04T00:27:17;2.40;80.40
68235;DHT22;55052;52.056;5.296;2022-12-04T00:29:44;2.30;80.40
68235;DHT22;55052;52.056;5.296;2022-12-04T00:32:11;2.40;80.50
68235;DHT22;55052;52.056;5.296;2022-12-04T00:34:37;2.40;80.50
68235;DHT22;55052;52.056;5.296;2022-12-04T00:37:04;2.40;80.50
68235;DHT22;55052;52.056;5.296;2022-12-04T00:39:31;2.40;80.60
68235;DHT22;55052;52.056;5.296;2022-12-04T00:41:57;2.40;80.60
68235;DHT22;55052;52.056;5.296;2022-12-04T00:44:24;2.40;80.60
68235;DHT22;55052;52.056;5.296;2022-12-04T00:46:51;2.40;80.60
68235;DHT22;55052;52.056;5.296;2022-12-04T00:49:18;2.40;80.60
68235;DHT22;55052;52.056;5.296;2022-12-04T00:51:44;2.40;80.50
68235;DHT22;55052;52.056;5.296;2022-12-04T00:54:11;2.40;80.60
68235;DHT22;55052;52.056;5.296;2022-12-04T00:56:38;2.40;80.60
68235;DHT22;55052;52.056;5.296;2022-12-04T00:59:05;2.40;80.60
68235;DHT22;55052;52.056;5.296;2022-12-04T01:01:31;2.40;80.50
68235;DHT22;55052;52.056;5.296;2022-12-04T01:03:58;2.40;80.60
68235;DHT22;55052;52.056;5.296;2022-12-04T01:06:29;2.40;80.60
68235;DHT22;55052;52.056;5.296;2022-12-04T01:08:58;2.40;80.60
68235;DHT22;55052;52.056;5.296;2022-12-04T01:11:26;2.40;80.60
68235;DHT22;55052;52.056;5.296;2022-12-04T01:13:54;2.40;80.50
68235;DHT22;55052;52.056;5.296;2022-12-04T01:16:30;2.40;80.50
68235;DHT22;55052;52.056;5.296;2022-12-04T01:18:57;2.40;80.70
68235;DHT22;55052;52.056;5.296;2022-12-04T01:21:24;2.40;80.70
68235;DHT22;55052;52.056;5.296;2022-12-04T01:23:51;2.40;80.60
68235;DHT22;55052;52.056;5.296;2022-12-04T01:26:18;2.40;80.70
68235;DHT22;55052;52.056;5.296;2022-12-04T01:28:45;2.40;80.80
68235;DHT22;55052;52.056;5.296;2022-12-04T01:31:15;2.40;80.80
68235;DHT22;55052;52.056;5.296;2022-12-04T01:33:42;2.40;80.70
68235;DHT22;55052;52.056;5.296;2022-12-04T01:36:12;2.50;80.60
68235;DHT22;55052;52.056;5.296;2022-12-04T01:38:39;2.40;80.70
68235;DHT22;55052;52.056;5.296;2022-12-04T01:41:07;2.40;80.60
68235;DHT22;55052;52.056;5.296;2022-12-04T01:43:36;2.40;80.60
68235;DHT22;55052;52.056;5.296;2022-12-04T01:46:04;2.40;80.70
68235;DHT22;55052;52.056;5.296;2022-12-04T01:51:18;2.40;80.90
68235;DHT22;55052;52.056;5.296;2022-12-04T01:53:52;2.40;80.70
68235;DHT22;55052;52.056;5.296;2022-12-04T01:56:23;2.40;80.80
68235;DHT22;55052;52.056;5.296;2022-12-04T01:58:52;2.40;80.70
68235;DHT22;55052;52.056;5.296;2022-12-04T02:01:20;2.40;80.70
68235;DHT22;55052;52.056;5.296;2022-12-04T02:03:47;2.40;80.80
68235;DHT22;55052;52.056;5.296;2022-12-04T02:06:14;2.40;80.80
68235;DHT22;55052;52.056;5.296;2022-12-04T02:08:41;2.40;80.80
68235;DHT22;55052;52.056;5.296;2022-12-04T02:11:16;2.40;80.80
68235;DHT22;55052;52.056;5.296;2022-12-04T02:16:36;2.40;80.80
68235;DHT22;55052;52.056;5.296;2022-12-04T02:19:39;2.40;80.80
68235;DHT22;55052;52.056;5.296;2022-12-04T02:22:44;2.40;80.80
68235;DHT22;55052;52.056;5.296;2022-12-04T02:30:53;2.40;80.80
68235;DHT22;55052;52.056;5.296;2022-12-04T02:33:25;2.40;80.90
68235;DHT22;55052;52.056;5.296;2022-12-04T02:38:33;2.40;80.90
68235;DHT22;55052;52.056;5.296;2022-12-04T02:46:38;2.40;81.90
68235;DHT22;55052;52.056;5.296;2022-12-04T02:49:13;2.40;81.00
68235;DHT22;55052;52.056;5.296;2022-12-04T02:51:43;2.40;81.80
68235;DHT22;55052;52.056;5.296;2022-12-04T02:54:18;2.40;81.00
68235;DHT22;55052;52.056;5.296;2022-12-04T02:56:49;2.40;81.00
68235;DHT22;55052;52.056;5.296;2022-12-04T02:59:22;2.40;81.00
68235;DHT22;55052;52.056;5.296;2022-12-04T03:01:53;2.40;81.10
68235;DHT22;55052;52.056;5.296;2022-12-04T03:04:27;2.40;81.00
68235;DHT22;55052;52.056;5.296;2022-12-04T03:06:59;2.40;81.10
68235;DHT22;55052;52.056;5.296;2022-12-04T03:09:35;2.40;81.10
68235;DHT22;55052;52.056;5.296;2022-12-04T03:12:17;2.40;81.10
68235;DHT22;55052;52.056;5.296;2022-12-04T03:14:59;2.40;81.20
68235;DHT22;55052;52.056;5.296;2022-12-04T03:17:39;2.40;81.10
68235;DHT22;55052;52.056;5.296;2022-12-04T03:20:10;2.40;81.00
68235;DHT22;55052;52.056;5.296;2022-12-04T03:22:41;2.40;81.10
68235;DHT22;55052;52.056;5.296;2022-12-04T03:25:09;2.40;81.20
68235;DHT22;55052;52.056;5.296;2022-12-04T03:27:51;2.30;81.10
68235;DHT22;55052;52.056;5.296;2022-12-04T03:30:23;2.40;81.30
68235;DHT22;55052;52.056;5.296;2022-12-04T03:33:03;2.40;81.20
68235;DHT22;55052;52.056;5.296;2022-12-04T03:35:46;2.40;81.20
68235;DHT22;55052;52.056;5.296;2022-12-04T03:38:19;2.40;81.20
68235;DHT22;55052;52.056;5.296;2022-12-04T03:43:54;2.40;81.30
68235;DHT22;55052;52.056;5.296;2022-12-04T03:48:53;2.40;81.30
68235;DHT22;55052;52.056;5.296;2022-12-04T03:51:34;2.30;81.30
68235;DHT22;55052;52.056;5.296;2022-12-04T03:54:10;2.40;81.40
68235;DHT22;55052;52.056;5.296;2022-12-04T03:56:55;2.40;82.30
68235;DHT22;55052;52.056;5.296;2022-12-04T03:59:31;2.40;81.50
68235;DHT22;55052;52.056;5.296;2022-12-04T04:02:02;2.40;81.50
68235;DHT22;55052;52.056;5.296;2022-12-04T04:04:34;2.40;81.50
68235;DHT22;55052;52.056;5.296;2022-12-04T04:07:27;2.40;81.50
68235;DHT22;55052;52.056;5.296;2022-12-04T04:10:06;2.40;81.50
68235;DHT22;55052;52.056;5.296;2022-12-04T04:12:39;2.40;81.60
68235;DHT22;55052;52.056;5.296;2022-12-04T04:15:13;2.40;81.60
68235;DHT22;55052;52.056;5.296;2022-12-04T04:18:01;2.40;81.60
68235;DHT22;55052;52.056;5.296;2022-12-04T04:20:53;2.40;81.60
68235;DHT22;55052;52.056;5.296;2022-12-04T04:23:47;2.40;81.60
68235;DHT22;55052;52.056;5.296;2022-12-04T04:26:38;2.40;81.60
68235;DHT22;55052;52.056;5.296;2022-12-04T04:29:08;2.40;81.80
68235;DHT22;55052;52.056;5.296;2022-12-04T04:31:46;2.40;81.60
68235;DHT22;55052;52.056;5.296;2022-12-04T04:37:07;2.40;81.60
68235;DHT22;55052;52.056;5.296;2022-12-04T04:39:57;2.40;81.60
68235;DHT22;55052;52.056;5.296;2022-12-04T04:42:30;2.40;81.60
68235;DHT22;55052;52.056;5.296;2022-12-04T04:45:14;2.40;81.60
68235;DHT22;55052;52.056;5.296;2022-12-04T04:47:49;2.40;81.70
68235;DHT22;55052;52.056;5.296;2022-12-04T04:50:18;2.40;81.70
68235;DHT22;55052;52.056;5.296;2022-12-04T04:52:54;2.40;81.70
68235;DHT22;55052;52.056;5.296;2022-12-04T04:55:23;2.40;81.60
68235;DHT22;55052;52.056;5.296;2022-12-04T04:57:50;2.40;81.60
68235;DHT22;55052;52.056;5.296;2022-12-04T05:00:20;2.40;81.60
68235;DHT22;55052;52.056;5.296;2022-12-04T05:02:47;2.40;81.70
68235;DHT22;55052;52.056;5.296;2022-12-04T05:05:16;2.40;81.80
68235;DHT22;55052;52.056;5.296;2022-12-04T05:07:43;2.40;81.70
68235;DHT22;55052;52.056;5.296;2022-12-04T05:10:10;2.40;81.80
68235;DHT22;55052;52.056;5.296;2022-12-04T05:12:37;2.40;81.80
68235;DHT22;55052;52.056;5.296;2022-12-04T05:15:04;2.40;81.80
68235;DHT22;55052;52.056;5.296;2022-12-04T05:17:33;2.40;81.90
68235;DHT22;55052;52.056;5.296;2022-12-04T05:19:59;2.40;81.90
68235;DHT22;55052;52.056;5.296;2022-12-04T05:22:29;2.50;81.90
68235;DHT22;55052;52.056;5.296;2022-12-04T05:24:57;2.40;82.00
68235;DHT22;55052;52.056;5.296;2022-12-04T05:27:25;2.50;81.90
68235;DHT22;55052;52.056;5.296;2022-12-04T05:29:56;2.50;81.90
68235;DHT22;55052;52.056;5.296;2022-12-04T05:32:24;2.50;82.00
68235;DHT22;55052;52.056;5.296;2022-12-04T05:34:53;2.40;81.90
68235;DHT22;55052;52.056;5.296;2022-12-04T05:37:21;2.40;81.80
68235;DHT22;55052;52.056;5.296;2022-12-04T05:39:47;2.50;82.00
68235;DHT22;55052;52.056;5.296;2022-12-04T05:42:14;2.40;82.00
68235;DHT22;55052;52.056;5.296;2022-12-04T05:44:41;2.40;81.90
68235;DHT22;55052;52.056;5.296;2022-12-04T05:47:08;2.50;82.00
68235;DHT22;55052;52.056;5.296;2022-12-04T05:49:35;2.40;81.90
68235;DHT22;55052;52.056;5.296;2022-12-04T05:52:04;2.50;82.10
68235;DHT22;55052;52.056;5.296;2022-12-04T05:54:31;2.40;81.90
68235;DHT22;55052;52.056;5.296;2022-12-04T05:56:58;2.50;82.10
68235;DHT22;55052;52.056;5.296;2022-12-04T05:59:25;2.50;82.00
68235;DHT22;55052;52.056;5.296;2022-12-04T06:01:51;2.50;82.00
68235;DHT22;55052;52.056;5.296;2022-12-04T06:04:18;2.50;82.10
68235;DHT22;55052;52.056;5.296;2022-12-04T06:06:45;2.50;82.10
68235;DHT22;55052;52.056;5.296;2022-12-04T06:09:12;2.50;82.00
68235;DHT22;55052;52.056;5.296;2022-12-04T06:11:40;2.50;82.00
68235;DHT22;55052;52.056;5.296;2022-12-04T06:14:10;2.50;82.00
68235;DHT22;55052;52.056;5.296;2022-12-04T06:16:39;2.50;82.00
68235;DHT22;55052;52.056;5.296;2022-12-04T06:19:09;2.50;82.00
68235;DHT22;55052;52.056;5.296;2022-12-04T06:21:38;2.50;82.10
68235;DHT22;55052;52.056;5.296;2022-12-04T06:24:07;2.50;82.10
68235;DHT22;55052;52.056;5.296;2022-12-04T06:26:34;2.40;82.00
68235;DHT22;55052;52.056;5.296;2022-12-04T06:29:00;2.50;82.10
68235;DHT22;55052;52.056;5.296;2022-12-04T06:31:28;2.50;82.00
68235;DHT22;55052;52.056;5.296;2022-12-04T06:33:57;2.50;82.00
68235;DHT22;55052;52.056;5.296;2022-12-04T06:36:24;2.50;82.10
68235;DHT22;55052;52.056;5.296;2022-12-04T06:38:54;2.50;82.00
68235;DHT22;55052;52.056;5.296;2022-12-04T06:41:22;2.40;82.00
68235;DHT22;55052;52.056;5.296;2022-12-04T06:43:50;2.50;81.90
68235;DHT22;55052;52.056;5.296;2022-12-04T06:46:22;2.40;81.90
68235;DHT22;55052;52.056;5.296;2022-12-04T06:48:50;2.50;82.00
68235;DHT22;55052;52.056;5.296;2022-12-04T06:51:20;2.40;82.00
68235;DHT22;55052;52.056;5.296;2022-12-04T06:53:47;2.40;82.00
68235;DHT22;55052;52.056;5.296;2022-12-04T06:56:17;2.40;82.00
68235;DHT22;55052;52.056;5.296;2022-12-04T06:58:45;2.40;82.00
68235;DHT22;55052;52.056;5.296;2022-12-04T07:01:17;2.50;82.10
68235;DHT22;55052;52.056;5.296;2022-12-04T07:03:45;2.40;82.00
68235;DHT22;55052;52.056;5.296;2022-12-04T07:08:51;2.40;82.10
68235;DHT22;55052;52.056;5.296;2022-12-04T07:11:19;2.50;82.10
68235;DHT22;55052;52.056;5.296;2022-12-04T07:13:47;2.40;82.90
68235;DHT22;55052;52.056;5.296;2022-12-04T07:16:16;2.50;82.20
68235;DHT22;55052;52.056;5.296;2022-12-04T07:18:43;2.50;82.20
68235;DHT22;55052;52.056;5.296;2022-12-04T07:21:13;2.50;82.20
68235;DHT22;55052;52.056;5.296;2022-12-04T07:23:41;2.50;82.20
68235;DHT22;55052;52.056;5.296;2022-12-04T07:26:11;2.50;82.20
68235;DHT22;55052;52.056;5.296;2022-12-04T07:28:38;2.50;82.20
68235;DHT22;55052;52.056;5.296;2022-12-04T07:31:10;2.50;82.20
68235;DHT22;55052;52.056;5.296;2022-12-04T07:33:37;2.50;82.10
68235;DHT22;55052;52.056;5.296;2022-12-04T07:36:06;2.50;82.20
68235;DHT22;55052;52.056;5.296;2022-12-04T07:38:34;2.50;82.20
68235;DHT22;55052;52.056;5.296;2022-12-04T07:41:02;2.50;82.20
68235;DHT22;55052;52.056;5.296;2022-12-04T07:43:30;2.50;82.20
68235;DHT22;55052;52.056;5.296;2022-12-04T07:45:57;2.50;82.20
68235;DHT22;55052;52.056;5.296;2022-12-04T07:48:24;2.50;82.20
68235;DHT22;55052;52.056;5.296;2022-12-04T07:51:13;2.50;82.20
68235;DHT22;55052;52.056;5.296;2022-12-04T07:53:40;2.50;82.20
68235;DHT22;55052;52.056;5.296;2022-12-04T07:56:08;2.60;82.30
68235;DHT22;55052;52.056;5.296;2022-12-04T07:58:35;2.60;82.20
68235;DHT22;55052;52.056;5.296;2022-12-04T08:01:10;2.50;82.20
68235;DHT22;55052;52.056;5.296;2022-12-04T08:03:39;2.60;83.10
68235;DHT22;55052;52.056;5.296;2022-12-04T08:06:13;2.60;82.20
68235;DHT22;55052;52.056;5.296;2022-12-04T08:08:40;2.60;82.30
68235;DHT22;55052;52.056;5.296;2022-12-04T08:11:09;2.60;82.20
68235;DHT22;55052;52.056;5.296;2022-12-04T08:13:36;2.60;82.30
68235;DHT22;55052;52.056;5.296;2022-12-04T08:16:04;2.60;82.30
68235;DHT22;55052;52.056;5.296;2022-12-04T08:18:31;2.60;82.30
68235;DHT22;55052;52.056;5.296;2022-12-04T08:21:05;2.60;82.40
68235;DHT22;55052;52.056;5.296;2022-12-04T08:23:32;2.60;82.40
68235;DHT22;55052;52.056;5.296;2022-12-04T08:25:59;2.60;82.30
68235;DHT22;55052;52.056;5.296;2022-12-04T08:28:27;2.60;82.30
68235;DHT22;55052;52.056;5.296;2022-12-04T08:30:54;2.60;82.30
68235;DHT22;55052;52.056;5.296;2022-12-04T08:33:21;2.70;82.30
68235;DHT22;55052;52.056;5.296;2022-12-04T08:35:47;2.70;82.30
68235;DHT22;55052;52.056;5.296;2022-12-04T08:38:14;2.70;82.40
68235;DHT22;55052;52.056;5.296;2022-12-04T08:40:41;2.70;82.40
68235;DHT22;55052;52.056;5.296;2022-12-04T08:43:08;2.70;82.30
68235;DHT22;55052;52.056;5.296;2022-12-04T08:45:34;2.70;82.40
68235;DHT22;55052;52.056;5.296;2022-12-04T08:48:01;2.80;82.40
68235;DHT22;55052;52.056;5.296;2022-12-04T08:50:28;2.80;82.90
68235;DHT22;55052;52.056;5.296;2022-12-04T08:52:55;2.80;82.40
68235;DHT22;55052;52.056;5.296;2022-12-04T08:55:22;2.80;82.30
68235;DHT22;55052;52.056;5.296;2022-12-04T08:57:50;2.80;82.30
68235;DHT22;55052;52.056;5.296;2022-12-04T09:00:18;2.80;82.30
68235;DHT22;55052;52.056;5.296;2022-12-04T09:02:48;2.80;82.30
68235;DHT22;55052;52.056;5.296;2022-12-04T09:05:15;2.80;82.40
68235;DHT22;55052;52.056;5.296;2022-12-04T09:07:42;2.80;82.40
68235;DHT22;55052;52.056;5.296;2022-12-04T09:10:09;2.80;82.30
68235;DHT22;55052;52.056;5.296;2022-12-04T09:12:36;2.80;82.40
68235;DHT22;55052;52.056;5.296;2022-12-04T09:15:03;2.80;82.40
68235;DHT22;55052;52.056;5.296;2022-12-04T09:17:30;2.90;82.40
68235;DHT22;55052;52.056;5.296;2022-12-04T09:19:57;2.90;82.40
68235;DHT22;55052;52.056;5.296;2022-12-04T09:22:27;2.90;82.50
68235;DHT22;55052;52.056;5.296;2022-12-04T09:25:13;2.90;82.30
68235;DHT22;55052;52.056;5.296;2022-12-04T09:27:40;2.90;82.50
68235;DHT22;55052;52.056;5.296;2022-12-04T09:30:09;2.90;82.40
68235;DHT22;55052;52.056;5.296;2022-12-04T09:32:37;2.90;82.40
68235;DHT22;55052;52.056;5.296;2022-12-04T09:35:08;2.90;82.40
68235;DHT22;55052;52.056;5.296;2022-12-04T09:37:35;2.90;82.40
68235;DHT22;55052;52.056;5.296;2022-12-04T09:40:03;3.00;82.40
68235;DHT22;55052;52.056;5.296;2022-12-04T09:42:44;3.00;82.40
68235;DHT22;55052;52.056;5.296;2022-12-04T09:45:19;3.00;82.40
68235;DHT22;55052;52.056;5.296;2022-12-04T09:47:50;3.00;82.40
68235;DHT22;55052;52.056;5.296;2022-12-04T09:50:21;3.00;82.50
68235;DHT22;55052;52.056;5.296;2022-12-04T09:55:37;3.00;82.40
68235;DHT22;55052;52.056;5.296;2022-12-04T09:58:11;3.00;82.50
68235;DHT22;55052;52.056;5.296;2022-12-04T10:00:42;3.00;82.50
68235;DHT22;55052;52.056;5.296;2022-12-04T10:03:12;3.00;82.40
68235;DHT22;55052;52.056;5.296;2022-12-04T10:06:05;3.00;82.50
68235;DHT22;55052;52.056;5.296;2022-12-04T10:08:40;3.00;82.60
68235;DHT22;55052;52.056;5.296;2022-12-04T10:14:02;3.00;82.60
68235;DHT22;55052;52.056;5.296;2022-12-04T10:22:12;3.00;82.80
68235;DHT22;55052;52.056;5.296;2022-12-04T10:24:48;3.00;82.70
68235;DHT22;55052;52.056;5.296;2022-12-04T10:30:13;3.00;82.70
68235;DHT22;55052;52.056;5.296;2022-12-04T10:32:43;3.00;82.80
68235;DHT22;55052;52.056;5.296;2022-12-04T10:35:20;3.00;82.80
68235;DHT22;55052;52.056;5.296;2022-12-04T10:37:52;3.00;82.70
68235;DHT22;55052;52.056;5.296;2022-12-04T10:40:27;3.00;82.60
68235;DHT22;55052;52.056;5.296;2022-12-04T10:43:15;3.00;82.70
68235;DHT22;55052;52.056;5.296;2022-12-04T10:45:43;3.10;82.80
68235;DHT22;55052;52.056;5.296;2022-12-04T10:48:19;3.10;82.70
68235;DHT22;55052;52.056;5.296;2022-12-04T10:50:48;3.00;82.50
68235;DHT22;55052;52.056;5.296;2022-12-04T10:53:15;3.10;82.60
68235;DHT22;55052;52.056;5.296;2022-12-04T10:55:42;3.10;82.50
68235;DHT22;55052;52.056;5.296;2022-12-04T10:58:16;3.00;82.40
68235;DHT22;55052;52.056;5.296;2022-12-04T11:00:44;3.00;82.40
68235;DHT22;55052;52.056;5.296;2022-12-04T11:03:26;3.10;82.40
68235;DHT22;55052;52.056;5.296;2022-12-04T11:05:57;3.10;82.30
68235;DHT22;55052;52.056;5.296;2022-12-04T11:08:42;3.00;82.30
68235;DHT22;55052;52.056;5.296;2022-12-04T11:11:13;3.10;82.20
68235;DHT22;55052;52.056;5.296;2022-12-04T11:13:41;3.00;82.20
68235;DHT22;55052;52.056;5.296;2022-12-04T11:16:31;3.10;82.10
68235;DHT22;55052;52.056;5.296;2022-12-04T11:18:58;3.00;82.10
68235;DHT22;55052;52.056;5.296;2022-12-04T11:21:27;3.00;82.10
68235;DHT22;55052;52.056;5.296;2022-12-04T11:23:55;3.00;82.00
68235;DHT22;55052;52.056;5.296;2022-12-04T11:26:36;3.00;81.90
68235;DHT22;55052;52.056;5.296;2022-12-04T11:29:12;3.00;82.10
68235;DHT22;55052;52.056;5.296;2022-12-04T11:31:45;3.10;82.10
68235;DHT22;55052;52.056;5.296;2022-12-04T11:34:37;3.00;82.10
68235;DHT22;55052;52.056;5.296;2022-12-04T11:37:05;3.10;82.10
68235;DHT22;55052;52.056;5.296;2022-12-04T11:39:44;3.10;81.90
68235;DHT22;55052;52.056;5.296;2022-12-04T11:42:18;3.10;81.80
68235;DHT22;55052;52.056;5.296;2022-12-04T11:47:25;3.00;81.80
68235;DHT22;55052;52.056;5.296;2022-12-04T11:50:12;3.10;81.80
68235;DHT22;55052;52.056;5.296;2022-12-04T11:53:04;3.10;81.80
68235;DHT22;55052;52.056;5.296;2022-12-04T11:55:49;3.00;81.70
68235;DHT22;55052;52.056;5.296;2022-12-04T12:03:43;3.10;81.90
68235;DHT22;55052;52.056;5.296;2022-12-04T12:06:37;3.10;81.90
68235;DHT22;55052;52.056;5.296;2022-12-04T12:09:29;3.10;81.90
68235;DHT22;55052;52.056;5.296;2022-12-04T12:12:07;3.10;81.90
68235;DHT22;55052;52.056;5.296;2022-12-04T12:14:57;3.10;81.70
68235;DHT22;55052;52.056;5.296;2022-12-04T12:17:42;3.10;81.60
68235;DHT22;55052;52.056;5.296;2022-12-04T12:23:26;3.10;81.70
68235;DHT22;55052;52.056;5.296;2022-12-04T12:26:11;3.10;81.70
68235;DHT22;55052;52.056;5.296;2022-12-04T12:31:33;3.10;81.70
68235;DHT22;55052;52.056;5.296;2022-12-04T12:34:08;3.10;81.70
68235;DHT22;55052;52.056;5.296;2022-12-04T12:36:44;3.20;81.80
68235;DHT22;55052;52.056;5.296;2022-12-04T12:39:24;3.20;81.80
68235;DHT22;55052;52.056;5.296;2022-12-04T12:41:54;3.10;81.60
68235;DHT22;55052;52.056;5.296;2022-12-04T12:47:07;3.20;81.80
68235;DHT22;55052;52.056;5.296;2022-12-04T12:52:28;3.20;81.70
68235;DHT22;55052;52.056;5.296;2022-12-04T12:55:20;3.20;81.80
68235;DHT22;55052;52.056;5.296;2022-12-04T12:58:08;3.20;82.60
68235;DHT22;55052;52.056;5.296;2022-12-04T13:00:43;3.20;81.70
68235;DHT22;55052;52.056;5.296;2022-12-04T13:05:49;3.30;81.90
68235;DHT22;55052;52.056;5.296;2022-12-04T13:08:23;3.30;81.90
68235;DHT22;55052;52.056;5.296;2022-12-04T13:11:12;3.30;81.90
68235;DHT22;55052;52.056;5.296;2022-12-04T13:13:48;3.30;81.90
68235;DHT22;55052;52.056;5.296;2022-12-04T13:16:27;3.30;81.90
68235;DHT22;55052;52.056;5.296;2022-12-04T13:21:55;3.40;81.90
68235;DHT22;55052;52.056;5.296;2022-12-04T13:38:13;3.40;81.70
68235;DHT22;55052;52.056;5.296;2022-12-04T13:40:57;3.40;81.80
68235;DHT22;55052;52.056;5.296;2022-12-04T13:46:33;3.50;81.80
68235;DHT22;55052;52.056;5.296;2022-12-04T13:51:47;3.40;81.60
68235;DHT22;55052;52.056;5.296;2022-12-04T13:56:47;3.50;81.60
68235;DHT22;55052;52.056;5.296;2022-12-04T14:02:22;3.50;81.60
68235;DHT22;55052;52.056;5.296;2022-12-04T14:07:39;3.50;81.50
68235;DHT22;55052;52.056;5.296;2022-12-04T14:12:47;3.50;81.60
68235;DHT22;55052;52.056;5.296;2022-12-04T14:15:23;3.50;81.60
68235;DHT22;55052;52.056;5.296;2022-12-04T14:20:37;3.50;81.60
68235;DHT22;55052;52.056;5.296;2022-12-04T14:25:45;3.50;81.50
68235;DHT22;55052;52.056;5.296;2022-12-04T14:33:31;3.50;81.40
68235;DHT22;55052;52.056;5.296;2022-12-04T14:36:06;3.50;81.50
68235;DHT22;55052;52.056;5.296;2022-12-04T14:38:33;3.50;81.40
68235;DHT22;55052;52.056;5.296;2022-12-04T14:41:00;3.40;81.50
68235;DHT22;55052;52.056;5.296;2022-12-04T14:43:36;3.40;81.50
68235;DHT22;55052;52.056;5.296;2022-12-04T14:46:12;3.50;81.60
68235;DHT22;55052;52.056;5.296;2022-12-04T14:51:42;3.50;81.60
68235;DHT22;55052;52.056;5.296;2022-12-04T15:00:16;3.40;81.60
68235;DHT22;55052;52.056;5.296;2022-12-04T15:02:45;3.40;81.70
68235;DHT22;55052;52.056;5.296;2022-12-04T15:05:26;3.50;81.80
68235;DHT22;55052;52.056;5.296;2022-12-04T15:08:00;3.40;81.70
68235;DHT22;55052;52.056;5.296;2022-12-04T15:10:29;3.40;81.70
68235;DHT22;55052;52.056;5.296;2022-12-04T15:13:30;3.40;81.70
68235;DHT22;55052;52.056;5.296;2022-12-04T15:16:16;3.40;81.70
68235;DHT22;55052;52.056;5.296;2022-12-04T15:18:57;3.40;81.70
68235;DHT22;55052;52.056;5.296;2022-12-04T15:21:38;3.40;81.90
68235;DHT22;55052;52.056;5.296;2022-12-04T15:24:10;3.40;81.80
68235;DHT22;55052;52.056;5.296;2022-12-04T15:26:46;3.40;81.80
68235;DHT22;55052;52.056;5.296;2022-12-04T15:29:20;3.40;81.90
68235;DHT22;55052;52.056;5.296;2022-12-04T15:31:51;3.40;82.00
68235;DHT22;55052;52.056;5.296;2022-12-04T15:37:28;3.40;82.00
68235;DHT22;55052;52.056;5.296;2022-12-04T15:39:54;3.40;81.90
68235;DHT22;55052;52.056;5.296;2022-12-04T15:44:59;3.40;82.00
68235;DHT22;55052;52.056;5.296;2022-12-04T15:47:48;3.40;82.10
68235;DHT22;55052;52.056;5.296;2022-12-04T15:52:57;3.40;82.10
68235;DHT22;55052;52.056;5.296;2022-12-04T15:55:26;3.40;82.10
68235;DHT22;55052;52.056;5.296;2022-12-04T16:00:32;3.40;82.20
68235;DHT22;55052;52.056;5.296;2022-12-04T16:03:01;3.40;82.20
68235;DHT22;55052;52.056;5.296;2022-12-04T16:05:34;3.30;82.20
68235;DHT22;55052;52.056;5.296;2022-12-04T16:08:28;3.40;82.20
68235;DHT22;55052;52.056;5.296;2022-12-04T16:11:00;3.30;82.20
68235;DHT22;55052;52.056;5.296;2022-12-04T16:13:36;3.30;82.30
68235;DHT22;55052;52.056;5.296;2022-12-04T16:16:10;3.30;82.40
68235;DHT22;55052;52.056;5.296;2022-12-04T16:18:38;3.30;82.30
68235;DHT22;55052;52.056;5.296;2022-12-04T16:21:09;3.30;82.40
68235;DHT22;55052;52.056;5.296;2022-12-04T16:23:37;3.40;83.30
68235;DHT22;55052;52.056;5.296;2022-12-04T16:26:12;3.40;82.50
68235;DHT22;55052;52.056;5.296;2022-12-04T16:28:39;3.40;82.50
68235;DHT22;55052;52.056;5.296;2022-12-04T16:31:07;3.40;82.40
68235;DHT22;55052;52.056;5.296;2022-12-04T16:33:35;3.40;82.40
68235;DHT22;55052;52.056;5.296;2022-12-04T16:36:03;3.40;82.50
68235;DHT22;55052;52.056;5.296;2022-12-04T16:38:30;3.40;82.50
68235;DHT22;55052;52.056;5.296;2022-12-04T16:40:57;3.40;82.50
68235;DHT22;55052;52.056;5.296;2022-12-04T16:43:24;3.40;82.70
68235;DHT22;55052;52.056;5.296;2022-12-04T16:45:52;3.40;82.70
68235;DHT22;55052;52.056;5.296;2022-12-04T16:48:19;3.40;82.60
68235;DHT22;55052;52.056;5.296;2022-12-04T16:50:46;3.40;82.60
68235;DHT22;55052;52.056;5.296;2022-12-04T16:53:20;3.40;82.50
68235;DHT22;55052;52.056;5.296;2022-12-04T16:55:48;3.40;82.60
68235;DHT22;55052;52.056;5.296;2022-12-04T16:58:16;3.40;82.70
68235;DHT22;55052;52.056;5.296;2022-12-04T17:00:54;3.40;82.70
68235;DHT22;55052;52.056;5.296;2022-12-04T17:03:30;3.40;82.70
68235;DHT22;55052;52.056;5.296;2022-12-04T17:05:58;3.40;82.70
68235;DHT22;55052;52.056;5.296;2022-12-04T17:08:26;3.50;82.70
68235;DHT22;55052;52.056;5.296;2022-12-04T17:10:53;3.40;82.70
68235;DHT22;55052;52.056;5.296;2022-12-04T17:13:23;3.50;82.70
68235;DHT22;55052;52.056;5.296;2022-12-04T17:15:53;3.50;82.80
68235;DHT22;55052;52.056;5.296;2022-12-04T17:18:20;3.50;82.80
68235;DHT22;55052;52.056;5.296;2022-12-04T17:20:47;3.50;82.90
68235;DHT22;55052;52.056;5.296;2022-12-04T17:23:14;3.50;82.90
68235;DHT22;55052;52.056;5.296;2022-12-04T17:25:41;3.50;82.90
68235;DHT22;55052;52.056;5.296;2022-12-04T17:28:08;3.50;83.00
68235;DHT22;55052;52.056;5.296;2022-12-04T17:30:35;3.60;83.00
68235;DHT22;55052;52.056;5.296;2022-12-04T17:33:03;3.60;83.00
68235;DHT22;55052;52.056;5.296;2022-12-04T17:35:30;3.60;83.00
68235;DHT22;55052;52.056;5.296;2022-12-04T17:37:56;3.60;83.00
68235;DHT22;55052;52.056;5.296;2022-12-04T17:40:31;3.60;83.00
68235;DHT22;55052;52.056;5.296;2022-12-04T17:43:00;3.60;83.00
68235;DHT22;55052;52.056;5.296;2022-12-04T17:45:27;3.60;83.00
68235;DHT22;55052;52.056;5.296;2022-12-04T17:47:54;3.70;83.10
68235;DHT22;55052;52.056;5.296;2022-12-04T17:50:21;3.70;83.10
68235;DHT22;55052;52.056;5.296;2022-12-04T17:52:48;3.70;83.10
68235;DHT22;55052;52.056;5.296;2022-12-04T17:55:14;3.70;83.10
68235;DHT22;55052;52.056;5.296;2022-12-04T17:57:41;3.70;83.10
68235;DHT22;55052;52.056;5.296;2022-12-04T18:00:08;3.70;83.10
68235;DHT22;55052;52.056;5.296;2022-12-04T18:02:35;3.80;83.20
68235;DHT22;55052;52.056;5.296;2022-12-04T18:05:03;3.80;83.20
68235;DHT22;55052;52.056;5.296;2022-12-04T18:07:30;3.80;83.10
68235;DHT22;55052;52.056;5.296;2022-12-04T18:09:57;3.80;83.10
68235;DHT22;55052;52.056;5.296;2022-12-04T18:12:24;3.80;83.10
68235;DHT22;55052;52.056;5.296;2022-12-04T18:14:52;3.80;83.10
68235;DHT22;55052;52.056;5.296;2022-12-04T18:17:18;3.80;83.10
68235;DHT22;55052;52.056;5.296;2022-12-04T18:19:46;3.80;83.00
68235;DHT22;55052;52.056;5.296;2022-12-04T18:22:13;3.80;83.00